sensor_id;sensor_type;location;lat;lon;timestamp;pressure;altitude;pressure_sealevel;temperature;humidity
30682;BME280;17439;48.092;11.842;2022-10-16T00:01:25;95476.16;;;15.14;67.04
30682;BME280;17439;48.092;11.842;2022-10-16T00:03:52;95473.44;;;15.14;66.86
30682;BME280;17439;48.092;11.842;2022-10-16T00:06:20;95475.72;;;15.12;67.00
30682;BME280;17439;48.092;11.842;2022-10-16T00:08:48;95480.38;;;15.12;66.92
30682;BME280;17439;48.092;11.842;2022-10-16T00:11:19;95473.66;;;15.09;66.83
30682;BME280;17439;48.092;11.842;2022-10-16T00:13:47;95470.94;;;15.09;66.84
30682;BME280;17439;48.092;11.842;2022-10-16T00:16:14;95464.22;;;15.07;66.96
30682;BME280;17439;48.092;11.842;2022-10-16T00:18:41;95464.56;;;15.05;67.00
30682;BME280;17439;48.092;11.842;2022-10-16T00:21:15;95471.16;;;15.04;67.09
30682;BME280;17439;48.092;11.842;2022-10-16T00:23:42;95476.16;;;15.02;67.12
30682;BME280;17439;48.092;11.842;2022-10-16T00:26:11;95484.34;;;15.02;67.05
30682;BME280;17439;48.092;11.842;2022-10-16T00:28:39;95481.97;;;15.00;67.04
30682;BME280;17439;48.092;11.842;2022-10-16T00:31:07;95474.13;;;14.99;66.98
30682;BME280;17439;48.092;11.842;2022-10-16T00:33:35;95485.72;;;14.96;67.19
30682;BME280;17439;48.092;11.842;2022-10-16T00:36:03;95493.44;;;14.94;67.17
30682;BME280;17439;48.092;11.842;2022-10-16T00:38:31;95493.78;;;14.92;67.16
30682;BME280;17439;48.092;11.842;2022-10-16T00:40:57;95479.31;;;14.92;67.35
30682;BME280;17439;48.092;11.842;2022-10-16T00:43:39;95481.94;;;14.88;67.86
30682;BME280;17439;48.092;11.842;2022-10-16T00:46:26;95488.06;;;14.85;68.15
30682;BME280;17439;48.092;11.842;2022-10-16T00:49:03;95482.16;;;14.83;67.50
30682;BME280;17439;48.092;11.842;2022-10-16T00:51:35;95483.28;;;14.82;67.36
30682;BME280;17439;48.092;11.842;2022-10-16T00:54:08;95479.28;;;14.79;67.35
30682;BME280;17439;48.092;11.842;2022-10-16T00:56:35;95473.81;;;14.79;67.30
30682;BME280;17439;48.092;11.842;2022-10-16T00:59:07;95485.44;;;14.76;67.32
30682;BME280;17439;48.092;11.842;2022-10-16T01:01:38;95479.16;;;14.76;67.14
30682;BME280;17439;48.092;11.842;2022-10-16T01:04:04;95487.69;;;14.74;67.39
30682;BME280;17439;48.092;11.842;2022-10-16T01:06:48;95483.72;;;14.72;67.62
30682;BME280;17439;48.092;11.842;2022-10-16T01:09:28;95482.44;;;14.69;67.55
30682;BME280;17439;48.092;11.842;2022-10-16T01:12:33;95485.84;;;14.66;67.35
30682;BME280;17439;48.092;11.842;2022-10-16T01:15:29;95478.78;;;14.65;67.48
30682;BME280;17439;48.092;11.842;2022-10-16T01:18:23;95482.66;;;14.64;67.63
30682;BME280;17439;48.092;11.842;2022-10-16T01:20:53;95490.38;;;14.62;67.66
30682;BME280;17439;48.092;11.842;2022-10-16T01:26:20;95488.31;;;14.59;67.34
30682;BME280;17439;48.092;11.842;2022-10-16T01:29:26;95495.56;;;14.55;67.54
30682;BME280;17439;48.092;11.842;2022-10-16T01:32:10;95488.97;;;14.56;67.65
30682;BME280;17439;48.092;11.842;2022-10-16T01:35:11;95500.22;;;14.54;67.64
30682;BME280;17439;48.092;11.842;2022-10-16T01:37:53;95504.84;;;14.54;67.49
30682;BME280;17439;48.092;11.842;2022-10-16T01:40:24;95506.47;;;14.55;67.55
30682;BME280;17439;48.092;11.842;2022-10-16T01:43:04;95503.28;;;14.52;67.57
30682;BME280;17439;48.092;11.842;2022-10-16T01:45:33;95501.34;;;14.53;67.64
30682;BME280;17439;48.092;11.842;2022-10-16T01:48:00;95497.88;;;14.44;67.86
30682;BME280;17439;48.092;11.842;2022-10-16T01:50:28;95504.41;;;14.51;67.58
30682;BME280;17439;48.092;11.842;2022-10-16T01:52:56;95500.56;;;14.52;67.57
30682;BME280;17439;48.092;11.842;2022-10-16T01:55:29;95502.47;;;14.52;67.48
30682;BME280;17439;48.092;11.842;2022-10-16T01:57:59;95498.94;;;14.51;67.48
30682;BME280;17439;48.092;11.842;2022-10-16T02:00:28;95510.66;;;14.52;67.73
30682;BME280;17439;48.092;11.842;2022-10-16T02:02:55;95505.63;;;14.42;67.74
30682;BME280;17439;48.092;11.842;2022-10-16T02:05:34;95512.47;;;14.48;67.70
30682;BME280;17439;48.092;11.842;2022-10-16T02:08:04;95509.41;;;14.49;67.61
30682;BME280;17439;48.092;11.842;2022-10-16T02:10:32;95505.06;;;14.48;67.71
30682;BME280;17439;48.092;11.842;2022-10-16T02:13:04;95502.69;;;14.47;67.96
30682;BME280;17439;48.092;11.842;2022-10-16T02:15:32;95503.47;;;14.47;67.69
30682;BME280;17439;48.092;11.842;2022-10-16T02:17:59;95504.28;;;14.48;67.43
30682;BME280;17439;48.092;11.842;2022-10-16T02:20:28;95496.44;;;14.46;67.36
30682;BME280;17439;48.092;11.842;2022-10-16T02:23:03;95501.88;;;14.46;67.49
30682;BME280;17439;48.092;11.842;2022-10-16T02:25:32;95497.88;;;14.44;67.55
30682;BME280;17439;48.092;11.842;2022-10-16T02:28:08;95499.03;;;14.43;67.59
30682;BME280;17439;48.092;11.842;2022-10-16T02:30:42;95496.66;;;14.41;67.66
30682;BME280;17439;48.092;11.842;2022-10-16T02:33:11;95495.81;;;14.41;67.62
30682;BME280;17439;48.092;11.842;2022-10-16T02:35:40;95500.50;;;14.40;67.56
30682;BME280;17439;48.092;11.842;2022-10-16T02:38:08;95500.03;;;14.38;67.71
30682;BME280;17439;48.092;11.842;2022-10-16T02:40:56;95503.09;;;14.37;67.61
30682;BME280;17439;48.092;11.842;2022-10-16T02:43:22;95504.22;;;14.36;67.46
30682;BME280;17439;48.092;11.842;2022-10-16T02:45:49;95496.38;;;14.34;67.63
30682;BME280;17439;48.092;11.842;2022-10-16T02:48:15;95498.63;;;14.32;67.63
30682;BME280;17439;48.092;11.842;2022-10-16T02:50:42;95500.88;;;14.30;67.69
30682;BME280;17439;48.092;11.842;2022-10-16T02:53:08;95503.16;;;14.28;67.57
30682;BME280;17439;48.092;11.842;2022-10-16T02:55:35;95498.81;;;14.27;67.67
30682;BME280;17439;48.092;11.842;2022-10-16T02:58:01;95501.09;;;14.25;67.59
30682;BME280;17439;48.092;11.842;2022-10-16T03:00:28;95505.75;;;14.24;67.84
30682;BME280;17439;48.092;11.842;2022-10-16T03:02:54;95502.56;;;14.22;67.82
30682;BME280;17439;48.092;11.842;2022-10-16T03:05:21;95499.03;;;14.22;67.65
30682;BME280;17439;48.092;11.842;2022-10-16T03:08:07;95509.03;;;14.18;67.62
30682;BME280;17439;48.092;11.842;2022-10-16T03:10:34;95502.75;;;14.17;67.52
30682;BME280;17439;48.092;11.842;2022-10-16T03:13:00;95505.81;;;14.15;67.41
30682;BME280;17439;48.092;11.842;2022-10-16T03:15:27;95511.91;;;14.12;67.41
30682;BME280;17439;48.092;11.842;2022-10-16T03:17:54;95506.00;;;14.10;67.32
30682;BME280;17439;48.092;11.842;2022-10-16T03:20:21;95501.22;;;14.07;67.38
30682;BME280;17439;48.092;11.842;2022-10-16T03:22:47;95500.75;;;14.05;67.56
30682;BME280;17439;48.092;11.842;2022-10-16T03:25:14;95503.03;;;14.03;67.60
30682;BME280;17439;48.092;11.842;2022-10-16T03:27:40;95491.66;;;14.01;67.86
30682;BME280;17439;48.092;11.842;2022-10-16T03:30:08;95493.56;;;14.01;67.99
30682;BME280;17439;48.092;11.842;2022-10-16T03:32:34;95502.88;;;14.00;68.02
30682;BME280;17439;48.092;11.842;2022-10-16T03:35:22;95505.94;;;13.98;67.89
30682;BME280;17439;48.092;11.842;2022-10-16T03:37:49;95515.28;;;13.88;68.26
30682;BME280;17439;48.092;11.842;2022-10-16T03:40:16;95512.03;;;13.95;67.88
30682;BME280;17439;48.092;11.842;2022-10-16T03:42:43;95513.66;;;13.96;67.90
30682;BME280;17439;48.092;11.842;2022-10-16T03:45:11;95521.81;;;13.96;67.86
30682;BME280;17439;48.092;11.842;2022-10-16T03:47:37;95517.81;;;13.93;68.02
30682;BME280;17439;48.092;11.842;2022-10-16T03:50:04;95520.53;;;13.93;68.31
30682;BME280;17439;48.092;11.842;2022-10-16T03:52:31;95517.03;;;13.93;68.43
30682;BME280;17439;48.092;11.842;2022-10-16T03:54:58;95512.03;;;13.95;68.61
30682;BME280;17439;48.092;11.842;2022-10-16T03:57:24;95512.03;;;13.95;68.75
30682;BME280;17439;48.092;11.842;2022-10-16T03:59:51;95522.28;;;13.98;68.90
30682;BME280;17439;48.092;11.842;2022-10-16T04:02:18;95525.50;;;14.00;69.07
30682;BME280;17439;48.092;11.842;2022-10-16T04:04:44;95530.28;;;14.03;69.40
30682;BME280;17439;48.092;11.842;2022-10-16T04:07:11;95541.31;;;14.07;69.48
30682;BME280;17439;48.092;11.842;2022-10-16T04:09:37;95533.28;;;14.10;69.69
30682;BME280;17439;48.092;11.842;2022-10-16T04:12:04;95535.00;;;14.15;69.42
30682;BME280;17439;48.092;11.842;2022-10-16T04:14:30;95526.97;;;14.19;69.67
30682;BME280;17439;48.092;11.842;2022-10-16T04:16:57;95528.69;;;14.23;69.78
30682;BME280;17439;48.092;11.842;2022-10-16T04:19:23;95521.44;;;14.27;69.73
30682;BME280;17439;48.092;11.842;2022-10-16T04:21:50;95516.13;;;14.31;70.03
30682;BME280;17439;48.092;11.842;2022-10-16T04:24:17;95518.19;;;14.34;69.93
30682;BME280;17439;48.092;11.842;2022-10-16T04:26:43;95526.16;;;14.39;70.15
30682;BME280;17439;48.092;11.842;2022-10-16T04:29:09;95517.31;;;14.42;70.16
30682;BME280;17439;48.092;11.842;2022-10-16T04:31:36;95517.91;;;14.48;70.03
30682;BME280;17439;48.092;11.842;2022-10-16T04:34:02;95518.03;;;14.51;70.14
30682;BME280;17439;48.092;11.842;2022-10-16T04:36:29;95520.56;;;14.57;70.26
30682;BME280;17439;48.092;11.842;2022-10-16T04:38:55;95521.53;;;14.61;70.44
30682;BME280;17439;48.092;11.842;2022-10-16T04:41:22;95523.25;;;14.65;70.24
30682;BME280;17439;48.092;11.842;2022-10-16T04:43:49;95533.94;;;14.71;70.14
30682;BME280;17439;48.092;11.842;2022-10-16T04:46:16;95534.56;;;14.76;70.23
30682;BME280;17439;48.092;11.842;2022-10-16T04:48:42;95535.47;;;14.80;70.13
30682;BME280;17439;48.092;11.842;2022-10-16T04:51:09;95526.28;;;14.85;69.69
30682;BME280;17439;48.092;11.842;2022-10-16T04:53:35;95521.75;;;14.89;69.83
30682;BME280;17439;48.092;11.842;2022-10-16T04:56:02;95510.94;;;14.93;69.77
30682;BME280;17439;48.092;11.842;2022-10-16T04:58:29;95519.25;;;14.96;69.60
30682;BME280;17439;48.092;11.842;2022-10-16T05:00:55;95509.59;;;14.99;69.81
30682;BME280;17439;48.092;11.842;2022-10-16T05:03:22;95513.56;;;15.01;69.51
30682;BME280;17439;48.092;11.842;2022-10-16T05:05:49;95513.22;;;15.03;69.83
30682;BME280;17439;48.092;11.842;2022-10-16T05:08:16;95509.81;;;15.06;69.63
30682;BME280;17439;48.092;11.842;2022-10-16T05:10:43;95508.69;;;15.07;69.79
30682;BME280;17439;48.092;11.842;2022-10-16T05:13:10;95511.09;;;15.09;69.77
30682;BME280;17439;48.092;11.842;2022-10-16T05:15:37;95513.16;;;15.12;69.55
30682;BME280;17439;48.092;11.842;2022-10-16T05:18:03;95519.06;;;15.14;69.57
30682;BME280;17439;48.092;11.842;2022-10-16T05:20:30;95512.94;;;15.17;69.83
30682;BME280;17439;48.092;11.842;2022-10-16T05:22:57;95522.72;;;15.18;69.76
30682;BME280;17439;48.092;11.842;2022-10-16T05:25:23;95522.06;;;15.21;69.57
30682;BME280;17439;48.092;11.842;2022-10-16T05:27:50;95508.50;;;15.24;69.56
30682;BME280;17439;48.092;11.842;2022-10-16T05:30:17;95511.34;;;15.28;69.57
30682;BME280;17439;48.092;11.842;2022-10-16T05:32:48;95516.13;;;15.31;69.38
30682;BME280;17439;48.092;11.842;2022-10-16T05:35:15;95519.31;;;15.33;69.35
30682;BME280;17439;48.092;11.842;2022-10-16T05:37:41;95521.38;;;15.36;69.63
30682;BME280;17439;48.092;11.842;2022-10-16T05:40:09;95519.56;;;15.40;69.43
30682;BME280;17439;48.092;11.842;2022-10-16T05:42:36;95529.03;;;15.43;69.44
30682;BME280;17439;48.092;11.842;2022-10-16T05:45:04;95530.25;;;15.46;69.44
30682;BME280;17439;48.092;11.842;2022-10-16T05:47:31;95531.53;;;15.48;69.46
30682;BME280;17439;48.092;11.842;2022-10-16T05:49:57;95544.50;;;15.51;69.50
30682;BME280;17439;48.092;11.842;2022-10-16T05:52:24;95534.81;;;15.54;69.41
30682;BME280;17439;48.092;11.842;2022-10-16T05:54:51;95536.09;;;15.56;69.61
30682;BME280;17439;48.092;11.842;2022-10-16T05:57:17;95540.88;;;15.59;69.41
30682;BME280;17439;48.092;11.842;2022-10-16T05:59:44;95549.19;;;15.63;69.40
30682;BME280;17439;48.092;11.842;2022-10-16T06:02:12;95550.44;;;15.66;69.21
30682;BME280;17439;48.092;11.842;2022-10-16T06:04:39;95554.41;;;15.68;68.94
30682;BME280;17439;48.092;11.842;2022-10-16T06:07:06;95560.69;;;15.69;69.11
30682;BME280;17439;48.092;11.842;2022-10-16T06:09:33;95563.09;;;15.70;68.81
30682;BME280;17439;48.092;11.842;2022-10-16T06:11:59;95560.00;;;15.72;68.93
30682;BME280;17439;48.092;11.842;2022-10-16T06:14:26;95574.13;;;15.74;69.11
30682;BME280;17439;48.092;11.842;2022-10-16T06:16:52;95562.41;;;15.73;68.85
30682;BME280;17439;48.092;11.842;2022-10-16T06:19:19;95569.94;;;15.76;68.91
30682;BME280;17439;48.092;11.842;2022-10-16T06:21:45;95574.25;;;15.77;68.84
30682;BME280;17439;48.092;11.842;2022-10-16T06:24:12;95577.09;;;15.81;68.77
30682;BME280;17439;48.092;11.842;2022-10-16T06:26:38;95575.97;;;15.82;68.91
30682;BME280;17439;48.092;11.842;2022-10-16T06:29:05;95576.41;;;15.84;68.89
30682;BME280;17439;48.092;11.842;2022-10-16T06:31:32;95582.38;;;15.86;68.75
30682;BME280;17439;48.092;11.842;2022-10-16T06:33:59;95583.16;;;15.87;68.83
30682;BME280;17439;48.092;11.842;2022-10-16T06:36:26;95583.94;;;15.87;68.79
30682;BME280;17439;48.092;11.842;2022-10-16T06:38:53;95578.94;;;15.89;68.90
30682;BME280;17439;48.092;11.842;2022-10-16T06:41:21;95583.25;;;15.90;68.89
30682;BME280;17439;48.092;11.842;2022-10-16T06:43:48;95573.94;;;15.91;68.94
30682;BME280;17439;48.092;11.842;2022-10-16T06:46:17;95581.44;;;15.94;69.13
30682;BME280;17439;48.092;11.842;2022-10-16T06:48:44;95583.50;;;15.98;69.32
30682;BME280;17439;48.092;11.842;2022-10-16T06:51:15;95591.38;;;15.99;69.19
30682;BME280;17439;48.092;11.842;2022-10-16T06:53:50;95594.19;;;16.03;69.08
30682;BME280;17439;48.092;11.842;2022-10-16T06:56:28;95602.50;;;16.06;69.00
30682;BME280;17439;48.092;11.842;2022-10-16T06:58:55;95613.09;;;16.08;69.09
30682;BME280;17439;48.092;11.842;2022-10-16T07:01:23;95609.69;;;16.11;69.11
30682;BME280;17439;48.092;11.842;2022-10-16T07:03:51;95609.00;;;16.14;69.18
30682;BME280;17439;48.092;11.842;2022-10-16T07:06:19;95609.44;;;16.16;69.15
30682;BME280;17439;48.092;11.842;2022-10-16T07:08:47;95614.25;;;16.19;69.00
30682;BME280;17439;48.092;11.842;2022-10-16T07:11:18;95617.44;;;16.21;69.06
30682;BME280;17439;48.092;11.842;2022-10-16T07:13:46;95624.63;;;16.26;69.36
30682;BME280;17439;48.092;11.842;2022-10-16T07:16:21;95622.78;;;16.30;69.40
30682;BME280;17439;48.092;11.842;2022-10-16T07:18:48;95628.03;;;16.35;69.70
30682;BME280;17439;48.092;11.842;2022-10-16T07:21:17;95634.06;;;16.41;69.54
30682;BME280;17439;48.092;11.842;2022-10-16T07:23:44;95627.56;;;16.45;69.83
30682;BME280;17439;48.092;11.842;2022-10-16T07:26:11;95634.75;;;16.50;69.70
30682;BME280;17439;48.092;11.842;2022-10-16T07:28:38;95643.97;;;16.58;69.72
30682;BME280;17439;48.092;11.842;2022-10-16T07:31:07;95636.66;;;16.62;69.76
30682;BME280;17439;48.092;11.842;2022-10-16T07:33:34;95644.28;;;16.68;69.83
30682;BME280;17439;48.092;11.842;2022-10-16T07:36:01;95646.78;;;16.74;69.91
30682;BME280;17439;48.092;11.842;2022-10-16T07:38:28;95643.47;;;16.80;69.76
30682;BME280;17439;48.092;11.842;2022-10-16T07:41:05;95653.06;;;16.86;69.55
30682;BME280;17439;48.092;11.842;2022-10-16T07:43:33;95643.13;;;16.94;70.01
30682;BME280;17439;48.092;11.842;2022-10-16T07:46:00;95649.56;;;17.02;70.00
30682;BME280;17439;48.092;11.842;2022-10-16T07:48:33;95650.59;;;17.10;70.02
30682;BME280;17439;48.092;11.842;2022-10-16T07:51:05;95649.97;;;17.16;69.76
30682;BME280;17439;48.092;11.842;2022-10-16T07:53:33;95656.47;;;17.24;69.93
30682;BME280;17439;48.092;11.842;2022-10-16T07:56:02;95659.06;;;17.33;69.82
30682;BME280;17439;48.092;11.842;2022-10-16T07:58:29;95658.03;;;17.37;69.69
30682;BME280;17439;48.092;11.842;2022-10-16T08:00:56;95669.16;;;17.45;69.61
30682;BME280;17439;48.092;11.842;2022-10-16T08:03:24;95671.28;;;17.51;69.65
30682;BME280;17439;48.092;11.842;2022-10-16T08:05:51;95667.16;;;17.57;69.71
30682;BME280;17439;48.092;11.842;2022-10-16T08:08:18;95676.38;;;17.65;69.61
30682;BME280;17439;48.092;11.842;2022-10-16T08:10:45;95676.56;;;17.72;69.68
30682;BME280;17439;48.092;11.842;2022-10-16T08:13:12;95674.47;;;17.82;69.34
30682;BME280;17439;48.092;11.842;2022-10-16T08:15:38;95670.78;;;17.90;69.04
30682;BME280;17439;48.092;11.842;2022-10-16T08:18:05;95679.66;;;17.99;69.17
30682;BME280;17439;48.092;11.842;2022-10-16T08:20:33;95682.19;;;18.08;68.77
30682;BME280;17439;48.092;11.842;2022-10-16T08:23:00;95681.56;;;18.15;68.66
30682;BME280;17439;48.092;11.842;2022-10-16T08:25:27;95682.56;;;18.22;68.65
30682;BME280;17439;48.092;11.842;2022-10-16T08:27:54;95685.13;;;18.31;68.45
30682;BME280;17439;48.092;11.842;2022-10-16T08:30:23;95688.03;;;18.38;68.11
30682;BME280;17439;48.092;11.842;2022-10-16T08:32:50;95682.72;;;18.45;68.01
30682;BME280;17439;48.092;11.842;2022-10-16T08:35:16;95688.03;;;18.54;67.69
30682;BME280;17439;48.092;11.842;2022-10-16T08:37:43;95687.38;;;18.61;67.76
30682;BME280;17439;48.092;11.842;2022-10-16T08:40:19;95682.06;;;18.68;66.77
30682;BME280;17439;48.092;11.842;2022-10-16T08:48:20;95686.56;;;18.92;66.66
30682;BME280;17439;48.092;11.842;2022-10-16T08:50:51;95691.03;;;19.00;67.00
30682;BME280;17439;48.092;11.842;2022-10-16T08:53:20;95688.22;;;18.97;66.81
30682;BME280;17439;48.092;11.842;2022-10-16T08:55:53;95690.91;;;19.13;66.29
30682;BME280;17439;48.092;11.842;2022-10-16T08:58:27;95689.53;;;19.23;64.93
30682;BME280;17439;48.092;11.842;2022-10-16T09:00:59;95692.88;;;19.32;66.57
30682;BME280;17439;48.092;11.842;2022-10-16T09:04:07;95701.72;;;19.41;66.29
30682;BME280;17439;48.092;11.842;2022-10-16T09:12:20;95706.84;;;19.62;64.71
30682;BME280;17439;48.092;11.842;2022-10-16T09:15:13;95707.78;;;19.70;64.84
30682;BME280;17439;48.092;11.842;2022-10-16T09:25:44;95712.31;;;20.01;64.58
30682;BME280;17439;48.092;11.842;2022-10-16T09:28:11;95710.47;;;20.09;65.52
30682;BME280;17439;48.092;11.842;2022-10-16T09:30:38;95716.09;;;20.16;65.27
30682;BME280;17439;48.092;11.842;2022-10-16T09:33:05;95724.09;;;20.25;65.12
30682;BME280;17439;48.092;11.842;2022-10-16T09:35:37;95728.97;;;20.32;64.10
30682;BME280;17439;48.092;11.842;2022-10-16T09:38:05;95719.25;;;20.38;65.03
30682;BME280;17439;48.092;11.842;2022-10-16T09:40:37;95720.13;;;20.45;63.28
30682;BME280;17439;48.092;11.842;2022-10-16T09:45:54;95722.75;;;20.61;63.31
30682;BME280;17439;48.092;11.842;2022-10-16T09:48:20;95729.56;;;20.68;64.44
30682;BME280;17439;48.092;11.842;2022-10-16T09:50:58;95723.72;;;20.73;62.43
30682;BME280;17439;48.092;11.842;2022-10-16T09:53:42;95728.22;;;20.81;64.05
30682;BME280;17439;48.092;11.842;2022-10-16T09:56:11;95723.22;;;20.90;63.61
30682;BME280;17439;48.092;11.842;2022-10-16T09:58:43;95727.25;;;20.96;62.79
30682;BME280;17439;48.092;11.842;2022-10-16T10:01:15;95724.22;;;21.05;63.70
30682;BME280;17439;48.092;11.842;2022-10-16T10:03:43;95726.66;;;21.10;63.64
30682;BME280;17439;48.092;11.842;2022-10-16T10:06:25;95727.56;;;21.18;63.43
30682;BME280;17439;48.092;11.842;2022-10-16T10:09:06;95722.94;;;21.26;62.72
30682;BME280;17439;48.092;11.842;2022-10-16T10:16:50;95721.69;;;21.50;63.00
30682;BME280;17439;48.092;11.842;2022-10-16T10:19:21;95732.41;;;21.59;62.17
30682;BME280;17439;48.092;11.842;2022-10-16T10:21:49;95723.09;;;21.67;62.42
30682;BME280;17439;48.092;11.842;2022-10-16T10:24:18;95723.16;;;21.74;62.11
30682;BME280;17439;48.092;11.842;2022-10-16T10:27:00;95720.88;;;21.80;60.65
30682;BME280;17439;48.092;11.842;2022-10-16T10:29:44;95728.44;;;21.90;61.78
30682;BME280;17439;48.092;11.842;2022-10-16T10:32:22;95715.16;;;21.99;60.79
30682;BME280;17439;48.092;11.842;2022-10-16T10:35:13;95714.03;;;22.07;60.17
30682;BME280;17439;48.092;11.842;2022-10-16T10:46:03;95713.56;;;22.36;58.38
30682;BME280;17439;48.092;11.842;2022-10-16T10:48:44;95714.00;;;22.41;59.03
30682;BME280;17439;48.092;11.842;2022-10-16T10:51:31;95716.41;;;22.46;59.31
30682;BME280;17439;48.092;11.842;2022-10-16T10:54:16;95716.50;;;22.57;60.17
30682;BME280;17439;48.092;11.842;2022-10-16T10:59:28;95713.88;;;22.72;59.25
30682;BME280;17439;48.092;11.842;2022-10-16T11:07:25;95709.66;;;22.92;56.45
30682;BME280;17439;48.092;11.842;2022-10-16T11:10:05;95705.72;;;22.97;56.35
30682;BME280;17439;48.092;11.842;2022-10-16T11:12:39;95715.66;;;23.05;56.25
30682;BME280;17439;48.092;11.842;2022-10-16T11:15:25;95705.44;;;23.09;56.19
30682;BME280;17439;48.092;11.842;2022-10-16T11:18:01;95706.28;;;23.17;56.51
30682;BME280;17439;48.092;11.842;2022-10-16T11:20:42;95702.75;;;23.24;55.67
30682;BME280;17439;48.092;11.842;2022-10-16T11:25:48;95708.38;;;23.42;55.53
30682;BME280;17439;48.092;11.842;2022-10-16T11:28:27;95710.38;;;23.52;53.97
30682;BME280;17439;48.092;11.842;2022-10-16T11:36:45;95693.09;;;23.80;50.30
30682;BME280;17439;48.092;11.842;2022-10-16T11:39:26;95693.13;;;23.87;45.31
30682;BME280;17439;48.092;11.842;2022-10-16T11:41:59;95699.50;;;23.95;50.83
30682;BME280;17439;48.092;11.842;2022-10-16T11:47:27;95700.72;;;24.08;49.24
30682;BME280;17439;48.092;11.842;2022-10-16T11:50:23;95697.94;;;24.19;47.72
30682;BME280;17439;48.092;11.842;2022-10-16T11:53:03;95699.13;;;24.25;45.83
30682;BME280;17439;48.092;11.842;2022-10-16T11:55:37;95691.63;;;24.33;45.90
30682;BME280;17439;48.092;11.842;2022-10-16T11:58:24;95699.16;;;24.36;41.33
30682;BME280;17439;48.092;11.842;2022-10-16T12:01:05;95692.44;;;24.41;40.77
30682;BME280;17439;48.092;11.842;2022-10-16T12:11:46;95688.88;;;24.66;45.48
30682;BME280;17439;48.092;11.842;2022-10-16T12:16:55;95692.88;;;24.75;43.14
30682;BME280;17439;48.092;11.842;2022-10-16T12:19:24;95692.06;;;24.82;45.20
30682;BME280;17439;48.092;11.842;2022-10-16T12:21:55;95695.59;;;24.86;44.00
30682;BME280;17439;48.092;11.842;2022-10-16T12:24:27;95690.06;;;24.90;44.84
30682;BME280;17439;48.092;11.842;2022-10-16T12:26:56;95697.97;;;24.95;44.23
30682;BME280;17439;48.092;11.842;2022-10-16T12:29:39;95695.22;;;24.95;39.95
30682;BME280;17439;48.092;11.842;2022-10-16T12:32:30;95689.66;;;24.98;42.47
30682;BME280;17439;48.092;11.842;2022-10-16T12:35:30;95690.81;;;25.05;43.84
30682;BME280;17439;48.092;11.842;2022-10-16T12:38:17;95692.03;;;25.07;40.26
30682;BME280;17439;48.092;11.842;2022-10-16T12:40:46;95690.81;;;25.15;44.85
30682;BME280;17439;48.092;11.842;2022-10-16T12:48:32;95697.53;;;25.22;43.24
30682;BME280;17439;48.092;11.842;2022-10-16T13:02:11;95688.38;;;25.35;41.00
30682;BME280;17439;48.092;11.842;2022-10-16T13:08:01;95695.91;;;25.42;42.23
30682;BME280;17439;48.092;11.842;2022-10-16T13:13:54;95693.53;;;25.44;40.88
30682;BME280;17439;48.092;11.842;2022-10-16T13:22:24;95681.63;;;25.47;42.66
30682;BME280;17439;48.092;11.842;2022-10-16T13:30:20;95687.16;;;25.51;41.73
30682;BME280;17439;48.092;11.842;2022-10-16T13:33:00;95692.28;;;25.52;41.31
30682;BME280;17439;48.092;11.842;2022-10-16T13:35:29;95693.47;;;25.55;42.00
30682;BME280;17439;48.092;11.842;2022-10-16T13:38:35;95693.47;;;25.55;42.68
30682;BME280;17439;48.092;11.842;2022-10-16T13:41:06;95697.00;;;25.59;43.41
30682;BME280;17439;48.092;11.842;2022-10-16T13:43:42;95699.00;;;25.59;40.22
30682;BME280;17439;48.092;11.842;2022-10-16T13:46:22;95697.41;;;25.58;39.57
30682;BME280;17439;48.092;11.842;2022-10-16T13:49:14;95701.00;;;25.58;40.25
30682;BME280;17439;48.092;11.842;2022-10-16T13:51:53;95696.63;;;25.57;40.92
30682;BME280;17439;48.092;11.842;2022-10-16T13:54:20;95697.81;;;25.60;42.71
30682;BME280;17439;48.092;11.842;2022-10-16T13:56:47;95695.44;;;25.58;42.19
30682;BME280;17439;48.092;11.842;2022-10-16T13:59:36;95704.97;;;25.57;39.72
30682;BME280;17439;48.092;11.842;2022-10-16T14:04:46;95701.78;;;25.59;42.10
30682;BME280;17439;48.092;11.842;2022-10-16T14:07:16;95701.00;;;25.58;42.36
30682;BME280;17439;48.092;11.842;2022-10-16T14:09:49;95704.56;;;25.59;41.32
30682;BME280;17439;48.092;11.842;2022-10-16T14:12:16;95697.41;;;25.58;42.06
30682;BME280;17439;48.092;11.842;2022-10-16T14:14:46;95701.41;;;25.57;41.90
30682;BME280;17439;48.092;11.842;2022-10-16T14:17:15;95701.81;;;25.55;41.90
30682;BME280;17439;48.092;11.842;2022-10-16T14:19:46;95710.13;;;25.51;40.70
30682;BME280;17439;48.092;11.842;2022-10-16T14:24:51;95708.59;;;25.47;42.49
30682;BME280;17439;48.092;11.842;2022-10-16T14:27:28;95711.75;;;25.45;41.61
30682;BME280;17439;48.092;11.842;2022-10-16T14:30:25;95716.53;;;25.41;42.94
30682;BME280;17439;48.092;11.842;2022-10-16T14:33:00;95708.19;;;25.41;40.66
30682;BME280;17439;48.092;11.842;2022-10-16T14:35:33;95714.53;;;25.42;41.64
30682;BME280;17439;48.092;11.842;2022-10-16T14:38:01;95712.97;;;25.41;41.64
30682;BME280;17439;48.092;11.842;2022-10-16T14:40:35;95714.16;;;25.40;39.98
30682;BME280;17439;48.092;11.842;2022-10-16T14:43:02;95708.63;;;25.36;41.53
30682;BME280;17439;48.092;11.842;2022-10-16T14:45:32;95715.75;;;25.33;41.24
30682;BME280;17439;48.092;11.842;2022-10-16T14:48:03;95710.19;;;25.33;39.46
30682;BME280;17439;48.092;11.842;2022-10-16T14:50:31;95711.00;;;25.30;39.35
30682;BME280;17439;48.092;11.842;2022-10-16T14:52:58;95719.72;;;25.29;39.81
30682;BME280;17439;48.092;11.842;2022-10-16T14:55:25;95720.88;;;25.24;41.24
30682;BME280;17439;48.092;11.842;2022-10-16T14:57:52;95718.91;;;25.21;40.75
30682;BME280;17439;48.092;11.842;2022-10-16T15:00:25;95714.56;;;25.20;39.66